Time,TemperatureF,DewpointF,PressureIn,WindDirection,WindDirectionDegrees,WindSpeedMPH,WindSpeedGustMPH,Humidity,HourlyPrecipIn,Conditions,Clouds,dailyrainin,SoftwareType,DateUTC
2013-07-07 00:01:00,67.4,53.5,29.77,SSE,153,2.7,2.7,61,0.00,,OVC015,0.00,VWS V14.01,2013-07-07 07:01:00,
2013-07-07 00:06:00,67.4,54.0,29.77,SE,130,3.6,4.0,62,0.00,,OVC015,0.00,VWS V14.01,2013-07-07 07:06:00,
2013-07-07 00:11:00,67.4,54.0,29.77,SSW,207,3.6,4.0,62,0.00,,OVC015,0.00,VWS V14.01,2013-07-07 07:11:00,
2013-07-07 00:17:00,67.3,53.8,29.77,SE,135,2.7,4.9,62,0.00,,OVC015,0.00,VWS V14.01,2013-07-07 07:17:00,
2013-07-07 00:22:00,67.3,53.8,29.77,SSE,149,0.0,4.0,62,0.00,,OVC015,0.00,VWS V14.01,2013-07-07 07:22:00,
2013-07-07 00:28:00,67.3,53.8,29.77,SSW,211,0.0,4.0,62,0.00,,OVC015,0.00,VWS V14.01,2013-07-07 07:28:00,
2013-07-07 00:33:00,67.1,53.6,29.77,SSW,200,3.6,3.6,62,0.00,,OVC015,0.00,VWS V14.01,2013-07-07 07:33:00,
2013-07-07 00:38:00,66.9,53.9,29.77,SSW,196,3.6,5.4,63,0.00,,OVC015,0.00,VWS V14.01,2013-07-07 07:38:00,
2013-07-07 00:43:00,66.9,53.9,29.77,SW,218,3.6,4.5,63,0.00,,OVC015,0.00,VWS V14.01,2013-07-07 07:43:00,
2013-07-07 00:49:00,66.9,53.9,29.77,SSW,201,3.6,4.0,63,0.00,,OVC015,0.00,VWS V14.01,2013-07-07 07:49:00,
2013-07-07 00:54:00,66.9,53.9,29.77,SSW,193,3.6,5.8,63,0.00,,OVC015,0.00,VWS V14.01,2013-07-07 07:54:00,
2013-07-07 01:00:00,66.9,54.3,29.77,SSW,206,2.7,2.7,64,0.00,,OVC015,0.00,VWS V14.01,2013-07-07 08:00:00,
2013-07-07 01:06:00,66.9,54.3,29.77,SSE,158,2.7,3.1,64,0.00,,OVC015,0.00,VWS V14.01,2013-07-07 08:06:00,
2013-07-07 01:11:00,66.9,54.3,29.77,SSE,157,4.0,4.9,64,0.00,,OVC015,0.00,VWS V14.01,2013-07-07 08:11:00,
2013-07-07 01:16:00,66.9,53.9,29.77,South,187,0.0,2.2,63,0.00,,OVC015,0.00,VWS V14.01,2013-07-07 08:16:00,
2013-07-07 01:21:00,66.9,54.3,29.77,South,187,2.2,3.1,64,0.00,,OVC015,0.00,VWS V14.01,2013-07-07 08:21:00,
2013-07-07 01:27:00,66.9,54.3,29.77,South,187,2.7,3.1,64,0.00,,OVC015,0.00,VWS V14.01,2013-07-07 08:27:00,
2013-07-07 01:32:00,66.7,53.7,29.77,South,187,2.2,2.7,63,0.00,,OVC015,0.00,VWS V14.01,2013-07-07 08:32:00,
2013-07-07 01:37:00,66.9,53.9,29.77,South,187,0.0,0.0,63,0.00,,OVC013,0.00,VWS V14.01,2013-07-07 08:37:00,
2013-07-07 01:42:00,66.9,54.3,29.77,South,187,3.1,3.6,64,0.00,,OVC013,0.00,VWS V14.01,2013-07-07 08:42:00,
2013-07-07 01:48:00,66.9,54.3,29.77,South,187,0.0,2.7,64,0.00,,OVC013,0.00,VWS V14.01,2013-07-07 08:48:00,
2013-07-07 01:53:00,66.9,54.3,29.77,South,187,2.7,3.6,64,0.00,,OVC013,0.00,VWS V14.01,2013-07-07 08:53:00,
2013-07-07 01:59:00,66.9,54.3,29.77,South,187,3.1,3.1,64,0.00,,OVC013,0.00,VWS V14.01,2013-07-07 08:59:00,
2013-07-07 02:05:00,66.9,54.3,29.77,South,187,0.0,2.2,64,0.00,,OVC013,0.00,VWS V14.01,2013-07-07 09:05:00,
2013-07-07 02:10:00,66.9,54.3,29.77,South,187,2.2,2.2,64,0.00,,OVC013,0.00,VWS V14.01,2013-07-07 09:10:00,
2013-07-07 02:16:00,66.9,54.3,29.77,South,187,4.0,4.0,64,0.00,,OVC013,0.00,VWS V14.01,2013-07-07 09:16:00,
2013-07-07 02:21:00,67.1,54.5,29.77,South,187,0.0,0.0,64,0.00,,OVC013,0.00,VWS V14.01,2013-07-07 09:21:00,
2013-07-07 02:27:00,66.9,54.3,29.77,South,187,0.0,0.0,64,0.00,,OVC013,0.00,VWS V14.01,2013-07-07 09:27:00,
2013-07-07 02:32:00,66.9,54.3,29.77,South,187,0.0,0.0,64,0.00,,OVC013,0.00,VWS V14.01,2013-07-07 09:32:00,
2013-07-07 02:37:00,67.1,54.5,29.74,South,187,0.0,0.0,64,0.00,,OVC013,0.00,VWS V14.01,2013-07-07 09:37:00,
2013-07-07 02:42:00,67.1,54.5,29.74,South,187,0.0,0.0,64,0.00,,OVC013,0.00,VWS V14.01,2013-07-07 09:42:00,
2013-07-07 02:48:00,67.1,54.5,29.74,South,187,0.0,0.0,64,0.00,,OVC013,0.00,VWS V14.01,2013-07-07 09:48:00,
2013-07-07 02:54:00,67.1,54.5,29.74,South,187,0.0,0.0,64,0.00,,OVC013,0.00,VWS V14.01,2013-07-07 09:54:00,
2013-07-07 02:59:00,67.1,54.5,29.74,South,187,0.0,0.0,64,0.00,,OVC013,0.00,VWS V14.01,2013-07-07 09:59:00,
2013-07-07 03:05:00,67.1,54.5,29.74,South,187,0.0,0.0,64,0.00,,OVC013,0.00,VWS V14.01,2013-07-07 10:05:00,
2013-07-07 03:10:00,67.1,54.5,29.74,South,187,0.0,0.0,64,0.00,,OVC013,0.00,VWS V14.01,2013-07-07 10:10:00,
2013-07-07 03:16:00,67.1,54.5,29.74,South,187,0.0,0.0,64,0.00,,OVC013,0.00,VWS V14.01,2013-07-07 10:16:00,
2013-07-07 03:21:00,67.3,54.7,29.74,South,187,0.0,0.0,64,0.00,,OVC013,0.00,VWS V14.01,2013-07-07 10:21:00,
2013-07-07 03:27:00,67.3,54.2,29.74,South,187,0.0,0.0,63,0.00,,OVC013,0.00,VWS V14.01,2013-07-07 10:27:00,
2013-07-07 03:32:00,67.3,54.2,29.74,South,187,0.0,0.0,63,0.00,,OVC013,0.00,VWS V14.01,2013-07-07 10:32:00,
2013-07-07 03:37:00,67.3,54.2,29.74,South,187,0.0,0.0,63,0.00,,OVC011,0.00,VWS V14.01,2013-07-07 10:37:00,
2013-07-07 03:43:00,67.3,54.2,29.74,South,187,3.6,4.0,63,0.00,,OVC011,0.00,VWS V14.01,2013-07-07 10:43:00,
2013-07-07 03:48:00,67.3,54.2,29.74,South,187,3.6,4.0,63,0.00,,OVC011,0.00,VWS V14.01,2013-07-07 10:48:00,
2013-07-07 03:53:00,67.1,54.1,29.74,South,187,2.7,3.6,63,0.00,,OVC011,0.00,VWS V14.01,2013-07-07 10:53:00,
2013-07-07 03:58:00,67.1,54.1,29.74,South,187,0.0,0.0,63,0.00,,OVC011,0.00,VWS V14.01,2013-07-07 10:58:00,
2013-07-07 04:04:00,67.1,54.1,29.74,South,187,0.0,0.0,63,0.00,,OVC011,0.00,VWS V14.01,2013-07-07 11:04:00,
2013-07-07 04:09:00,67.3,54.2,29.74,South,187,3.1,4.0,63,0.00,,OVC011,0.00,VWS V14.01,2013-07-07 11:09:00,
2013-07-07 04:15:00,67.3,54.2,29.74,NE,45,0.0,2.2,63,0.00,,OVC011,0.00,VWS V14.01,2013-07-07 11:15:00,
2013-07-07 04:20:00,67.3,54.2,29.74,NE,45,0.0,0.0,63,0.00,,OVC011,0.00,VWS V14.01,2013-07-07 11:20:00,
2013-07-07 04:26:00,67.3,54.2,29.74,NE,45,0.0,0.0,63,0.00,,OVC011,0.00,VWS V14.01,2013-07-07 11:26:00,
2013-07-07 04:31:00,67.3,54.2,29.74,NE,45,0.0,0.0,63,0.00,,OVC011,0.00,VWS V14.01,2013-07-07 11:31:00,
2013-07-07 04:37:00,67.3,54.2,29.74,NE,45,0.0,0.0,63,0.00,,OVC011,0.00,VWS V14.01,2013-07-07 11:37:00,
2013-07-07 04:43:00,67.3,54.2,29.74,NE,45,0.0,2.2,63,0.00,,OVC011,0.00,VWS V14.01,2013-07-07 11:43:00,
2013-07-07 04:48:00,67.3,54.2,29.74,WNW,285,0.0,0.0,63,0.00,,OVC011,0.00,VWS V14.01,2013-07-07 11:48:00,
2013-07-07 04:54:00,67.3,54.2,29.74,WNW,285,0.0,0.0,63,0.00,,OVC011,0.00,VWS V14.01,2013-07-07 11:54:00,
2013-07-07 05:00:00,67.3,54.2,29.74,WNW,285,0.0,0.0,63,0.00,,OVC011,0.00,VWS V14.01,2013-07-07 12:00:00,
2013-07-07 05:05:00,67.3,54.2,29.74,WSW,252,2.7,2.7,63,0.00,,OVC011,0.00,VWS V14.01,2013-07-07 12:05:00,
2013-07-07 05:11:00,67.3,54.7,29.74,West,276,0.0,0.0,64,0.00,,OVC011,0.00,VWS V14.01,2013-07-07 12:11:00,
2013-07-07 05:16:00,67.3,54.7,29.74,NNW,331,4.0,4.0,64,0.00,,OVC011,0.00,VWS V14.01,2013-07-07 12:16:00,
2013-07-07 05:22:00,67.1,54.5,29.74,WNW,291,0.0,0.0,64,0.00,,OVC011,0.00,VWS V14.01,2013-07-07 12:22:00,
2013-07-07 05:27:00,67.1,54.5,29.74,NW,315,0.0,0.0,64,0.00,,OVC011,0.00,VWS V14.01,2013-07-07 12:27:00,
2013-07-07 05:33:00,67.1,54.5,29.74,NW,317,0.0,2.2,64,0.00,,OVC011,0.00,VWS V14.01,2013-07-07 12:33:00,
2013-07-07 05:39:00,67.1,54.5,29.74,North,2,0.0,0.0,64,0.00,,OVC011,0.00,VWS V14.01,2013-07-07 12:39:00,
2013-07-07 05:44:00,67.3,54.7,29.74,East,82,0.0,0.0,64,0.00,,OVC011,0.00,VWS V14.01,2013-07-07 12:44:00,
2013-07-07 05:50:00,67.3,54.7,29.74,East,82,0.0,0.0,64,0.00,,OVC011,0.00,VWS V14.01,2013-07-07 12:50:00,
2013-07-07 05:55:00,67.4,54.8,29.74,East,82,0.0,0.0,64,0.00,,OVC011,0.00,VWS V14.01,2013-07-07 12:55:00,
2013-07-07 06:01:00,67.4,54.8,29.74,East,82,0.0,0.0,64,0.00,,OVC011,0.00,VWS V14.01,2013-07-07 13:01:00,
2013-07-07 06:07:00,67.4,54.8,29.74,East,82,0.0,0.0,64,0.00,,OVC011,0.00,VWS V14.01,2013-07-07 13:07:00,
2013-07-07 06:12:00,67.4,54.8,29.74,East,83,0.0,0.0,64,0.00,,OVC011,0.00,VWS V14.01,2013-07-07 13:12:00,
2013-07-07 06:18:00,67.4,54.8,29.77,WSW,247,0.0,0.0,64,0.00,,OVC011,0.00,VWS V14.01,2013-07-07 13:18:00,
2013-07-07 06:23:00,67.4,54.8,29.77,WSW,257,0.0,4.0,64,0.00,,OVC011,0.00,VWS V14.01,2013-07-07 13:23:00,
2013-07-07 06:29:00,67.3,54.7,29.77,SW,234,3.1,4.0,64,0.00,,OVC011,0.00,VWS V14.01,2013-07-07 13:29:00,
2013-07-07 06:35:00,67.4,54.8,29.77,WSW,246,3.6,3.6,64,0.00,,OVC011,0.00,VWS V14.01,2013-07-07 13:35:00,
2013-07-07 06:40:00,67.4,54.8,29.77,WSW,257,2.7,2.7,64,0.00,,OVC011,0.00,VWS V14.01,2013-07-07 13:40:00,
2013-07-07 06:46:00,67.4,54.8,29.77,NNW,339,3.1,4.0,64,0.00,,OVC011,0.00,VWS V14.01,2013-07-07 13:46:00,
2013-07-07 06:51:00,67.6,55.0,29.77,NNE,23,2.7,4.0,64,0.00,,OVC011,0.00,VWS V14.01,2013-07-07 13:51:00,
2013-07-07 06:57:00,67.6,55.0,29.77,NNE,17,3.1,3.1,64,0.00,,OVC011,0.00,VWS V14.01,2013-07-07 13:57:00,
2013-07-07 07:02:00,67.8,54.8,29.77,NNE,33,0.0,0.0,63,0.00,,OVC011,0.00,VWS V14.01,2013-07-07 14:02:00,
2013-07-07 07:08:00,68.0,54.9,29.77,South,184,0.0,0.0,63,0.00,,OVC011,0.00,VWS V14.01,2013-07-07 14:08:00,
2013-07-07 07:14:00,68.0,54.5,29.77,West,273,0.0,0.0,62,0.00,,OVC011,0.00,VWS V14.01,2013-07-07 14:14:00,
2013-07-07 07:19:00,68.0,54.0,29.77,West,260,2.7,4.0,61,0.00,,OVC011,0.00,VWS V14.01,2013-07-07 14:19:00,
2013-07-07 07:24:00,68.0,54.0,29.77,WSW,241,0.0,2.7,61,0.00,,OVC011,0.00,VWS V14.01,2013-07-07 14:24:00,
2013-07-07 07:29:00,68.2,54.2,29.77,WSW,249,0.0,0.0,61,0.00,,OVC011,0.00,VWS V14.01,2013-07-07 14:29:00,
2013-07-07 07:35:00,68.3,54.4,29.77,WSW,248,0.0,0.0,61,0.00,,OVC011,0.00,VWS V14.01,2013-07-07 14:35:00,
2013-07-07 07:40:00,68.5,54.1,29.77,NW,311,0.0,2.7,60,0.00,,,0.00,VWS V14.01,2013-07-07 14:40:00,
2013-07-07 07:46:00,68.5,53.6,29.77,WNW,285,4.0,4.0,59,0.00,,,0.00,VWS V14.01,2013-07-07 14:46:00,
2013-07-07 07:52:00,68.7,53.3,29.77,West,271,2.7,4.9,58,0.00,,,0.00,VWS V14.01,2013-07-07 14:52:00,
2013-07-07 07:58:00,68.9,53.5,29.77,WSW,243,2.7,4.0,58,0.00,,,0.00,VWS V14.01,2013-07-07 14:58:00,
2013-07-07 08:04:00,68.9,53.0,29.77,WSW,248,2.7,4.0,57,0.00,,,0.00,VWS V14.01,2013-07-07 15:04:00,
2013-07-07 08:09:00,69.1,53.2,29.77,SSW,205,0.0,0.0,57,0.00,,,0.00,VWS V14.01,2013-07-07 15:09:00,
2013-07-07 08:14:00,69.2,52.9,29.77,West,271,3.1,3.6,56,0.00,,,0.00,VWS V14.01,2013-07-07 15:14:00,
2013-07-07 08:19:00,69.6,52.7,29.77,SSW,200,0.0,0.0,55,0.00,,,0.00,VWS V14.01,2013-07-07 15:19:00,
2013-07-07 08:25:00,70.0,53.1,29.77,South,183,0.0,0.0,55,0.00,,,0.00,VWS V14.01,2013-07-07 15:25:00,
2013-07-07 08:31:00,70.3,52.9,29.77,NE,46,3.1,3.1,54,0.00,,,0.00,VWS V14.01,2013-07-07 15:31:00,
2013-07-07 08:36:00,70.7,52.7,29.80,ENE,67,5.4,5.4,53,0.00,,,0.00,VWS V14.01,2013-07-07 15:36:00,
2013-07-07 08:42:00,71.0,53.1,29.80,ENE,69,3.6,4.0,53,0.00,,,0.00,VWS V14.01,2013-07-07 15:42:00,
2013-07-07 08:47:00,71.6,53.0,29.80,NNE,23,2.2,3.6,52,0.00,,,0.00,VWS V14.01,2013-07-07 15:47:00,
2013-07-07 08:52:00,71.4,50.1,29.80,ESE,123,3.1,3.1,47,0.00,,,0.00,VWS V14.01,2013-07-07 15:52:00,
2013-07-07 08:57:00,71.8,51.0,29.80,SE,136,0.0,0.0,48,0.00,,,0.00,VWS V14.01,2013-07-07 15:57:00,
2013-07-07 09:03:00,72.1,50.8,29.80,SSW,205,3.1,4.0,47,0.00,,,0.00,VWS V14.01,2013-07-07 16:03:00,
2013-07-07 09:08:00,72.3,49.8,29.80,SSE,156,0.0,4.0,45,0.00,,,0.00,VWS V14.01,2013-07-07 16:08:00,
2013-07-07 09:14:00,73.0,50.5,29.80,SSE,164,2.7,4.0,45,0.00,,,0.00,VWS V14.01,2013-07-07 16:14:00,
2013-07-07 09:20:00,73.4,50.2,29.80,South,178,2.2,3.1,44,0.00,,,0.00,VWS V14.01,2013-07-07 16:20:00,
2013-07-07 09:25:00,73.4,48.9,29.80,NW,321,3.1,4.0,42,0.00,,,0.00,VWS V14.01,2013-07-07 16:25:00,
2013-07-07 09:31:00,73.7,49.9,29.80,SSW,200,4.0,4.0,43,0.00,,,0.00,VWS V14.01,2013-07-07 16:31:00,
2013-07-07 09:34:00,73.4,49.5,29.80,SW,228,3.6,3.6,43,0.00,,,0.00,VWS V14.01,2013-07-07 16:34:00,
2013-07-07 09:39:00,73.9,49.4,29.80,West,266,2.2,3.1,42,0.00,,,0.00,VWS V14.01,2013-07-07 16:39:00,
2013-07-07 09:44:00,74.1,49.6,29.80,SW,217,3.1,4.0,42,0.00,,,0.00,VWS V14.01,2013-07-07 16:44:00,
2013-07-07 09:49:00,74.5,49.9,29.80,SSW,211,6.3,6.3,42,0.00,,,0.00,VWS V14.01,2013-07-07 16:49:00,
2013-07-07 09:55:00,74.5,49.2,29.80,South,188,3.6,5.4,41,0.00,,,0.00,VWS V14.01,2013-07-07 16:55:00,
2013-07-07 10:00:00,74.3,49.7,29.80,SE,130,2.7,3.1,42,0.00,,,0.00,VWS V14.01,2013-07-07 17:00:00,
2013-07-07 10:06:00,75.5,50.9,29.80,WSW,248,3.1,3.6,42,0.00,,,0.00,VWS V14.01,2013-07-07 17:06:00,
2013-07-07 10:12:00,76.4,49.0,29.80,West,266,6.3,6.3,38,0.00,,,0.00,VWS V14.01,2013-07-07 17:12:00,
2013-07-07 10:17:00,76.3,48.1,29.80,SSW,209,3.1,6.3,37,0.00,,,0.00,VWS V14.01,2013-07-07 17:17:00,
2013-07-07 10:22:00,76.4,48.3,29.80,WSW,237,4.0,4.0,37,0.00,,,0.00,VWS V14.01,2013-07-07 17:22:00,
2013-07-07 10:28:00,77.3,48.3,29.80,South,191,3.6,5.8,36,0.00,,,0.00,VWS V14.01,2013-07-07 17:28:00,
2013-07-07 10:34:00,78.2,47.6,29.80,WSW,248,5.4,6.3,34,0.00,,,0.00,VWS V14.01,2013-07-07 17:34:00,
2013-07-07 10:40:00,78.6,47.1,29.80,SSE,149,3.6,4.9,33,0.00,,,0.00,VWS V14.01,2013-07-07 17:40:00,
2013-07-07 10:45:00,77.9,46.5,29.80,WSW,238,5.4,7.2,33,0.00,,,0.00,VWS V14.01,2013-07-07 17:45:00,
2013-07-07 10:51:00,78.8,47.3,29.80,SE,133,2.2,4.9,33,0.00,,,0.00,VWS V14.01,2013-07-07 17:51:00,
2013-07-07 10:56:00,78.4,47.0,29.80,West,259,5.8,5.8,33,0.00,,,0.00,VWS V14.01,2013-07-07 17:56:00,
2013-07-07 11:02:00,78.8,47.3,29.80,WNW,287,2.7,3.1,33,0.00,,,0.00,VWS V14.01,2013-07-07 18:02:00,
2013-07-07 11:08:00,78.8,45.6,29.80,WSW,252,6.3,8.3,31,0.00,,,0.00,VWS V14.01,2013-07-07 18:08:00,
2013-07-07 11:13:00,80.6,47.2,29.80,WNW,285,6.3,6.3,31,0.00,,,0.00,VWS V14.01,2013-07-07 18:13:00,
2013-07-07 11:19:00,80.0,46.7,29.80,WSW,245,4.0,6.3,31,0.00,,,0.00,VWS V14.01,2013-07-07 18:19:00,
2013-07-07 11:24:00,81.1,46.8,29.80,SSW,202,4.0,7.6,30,0.00,,,0.00,VWS V14.01,2013-07-07 18:24:00,
2013-07-07 11:30:00,80.9,47.5,29.80,SSE,157,3.6,4.5,31,0.00,,,0.00,VWS V14.01,2013-07-07 18:30:00,
2013-07-07 11:35:00,81.3,46.9,29.80,SSE,161,8.7,8.7,30,0.00,,,0.00,VWS V14.01,2013-07-07 18:35:00,
2013-07-07 11:41:00,80.8,46.5,29.80,SSW,197,3.6,5.8,30,0.00,,,0.00,VWS V14.01,2013-07-07 18:41:00,
2013-07-07 11:47:00,80.6,46.3,29.80,South,189,3.6,3.6,30,0.00,,,0.00,VWS V14.01,2013-07-07 18:47:00,
2013-07-07 11:52:00,80.4,46.2,29.80,SW,215,8.3,8.3,30,0.00,,,0.00,VWS V14.01,2013-07-07 18:52:00,
2013-07-07 11:57:00,80.2,46.9,29.80,South,175,5.8,5.8,31,0.00,,,0.00,VWS V14.01,2013-07-07 18:57:00,
2013-07-07 12:02:00,79.9,45.7,29.80,SSW,201,4.5,8.3,30,0.00,,,0.00,VWS V14.01,2013-07-07 19:02:00,
2013-07-07 12:07:00,79.9,46.6,29.80,SW,220,6.3,7.6,31,0.00,,,0.00,VWS V14.01,2013-07-07 19:07:00,
2013-07-07 12:12:00,80.2,46.9,29.80,SE,133,5.8,7.6,31,0.00,,,0.00,VWS V14.01,2013-07-07 19:12:00,
2013-07-07 12:18:00,80.6,46.3,29.77,SSW,193,5.8,6.3,30,0.00,,,0.00,VWS V14.01,2013-07-07 19:18:00,
2013-07-07 12:23:00,80.8,46.5,29.77,SW,220,6.3,6.3,30,0.00,,,0.00,VWS V14.01,2013-07-07 19:23:00,
2013-07-07 12:28:00,80.6,46.3,29.77,SSW,195,0.0,4.0,30,0.00,,,0.00,VWS V14.01,2013-07-07 19:28:00,
2013-07-07 12:33:00,81.3,46.0,29.77,SSE,162,5.4,5.8,29,0.00,,,0.00,VWS V14.01,2013-07-07 19:33:00,
2013-07-07 12:38:00,81.5,46.2,29.77,SSW,202,5.4,6.3,29,0.00,,CLR,0.00,VWS V14.01,2013-07-07 19:38:00,
2013-07-07 12:44:00,81.1,46.8,29.77,SSW,195,5.8,8.3,30,0.00,,CLR,0.00,VWS V14.01,2013-07-07 19:44:00,
2013-07-07 12:50:00,81.5,46.2,29.77,SW,219,3.6,4.9,29,0.00,,CLR,0.00,VWS V14.01,2013-07-07 19:50:00,
2013-07-07 12:55:00,81.5,46.2,29.77,SSW,212,5.4,6.7,29,0.00,,CLR,0.00,VWS V14.01,2013-07-07 19:55:00,
2013-07-07 13:01:00,80.9,45.7,29.77,SSW,192,5.4,6.3,29,0.00,,CLR,0.00,VWS V14.01,2013-07-07 20:01:00,
2013-07-07 13:06:00,80.8,45.6,29.77,ESE,121,5.8,7.6,29,0.00,,CLR,0.00,VWS V14.01,2013-07-07 20:06:00,
2013-07-07 13:11:00,81.5,46.2,29.77,SSW,192,5.4,6.3,29,0.00,,CLR,0.00,VWS V14.01,2013-07-07 20:11:00,
2013-07-07 13:16:00,81.3,46.0,29.77,South,187,6.3,8.1,29,0.00,,CLR,0.00,VWS V14.01,2013-07-07 20:16:00,
2013-07-07 13:21:00,81.7,46.3,29.77,SSE,147,4.0,6.3,29,0.00,,CLR,0.00,VWS V14.01,2013-07-07 20:21:00,
2013-07-07 13:26:00,82.0,46.7,29.77,South,182,3.1,6.7,29,0.00,,CLR,0.00,VWS V14.01,2013-07-07 20:26:00,
2013-07-07 13:32:00,82.6,46.2,29.77,SE,124,4.9,6.3,28,0.00,,CLR,0.00,VWS V14.01,2013-07-07 20:32:00,
2013-07-07 13:37:00,82.7,45.4,29.77,SE,140,5.4,7.2,27,0.00,,CLR,0.00,VWS V14.01,2013-07-07 20:37:00,
2013-07-07 13:43:00,82.9,46.5,29.77,South,181,4.0,6.3,28,0.00,,CLR,0.00,VWS V14.01,2013-07-07 20:43:00,
2013-07-07 13:48:00,83.5,45.0,29.77,SSE,160,5.4,5.4,26,0.00,,CLR,0.00,VWS V14.01,2013-07-07 20:48:00,
2013-07-07 13:54:00,84.9,44.1,29.77,WSW,243,4.0,6.3,24,0.00,,CLR,0.00,VWS V14.01,2013-07-07 20:54:00,
2013-07-07 14:00:00,85.4,42.3,29.77,NW,318,4.0,6.3,22,0.00,,CLR,0.00,VWS V14.01,2013-07-07 21:00:00,
2013-07-07 14:05:00,83.8,42.1,29.74,SW,223,6.3,6.3,23,0.00,,CLR,0.00,VWS V14.01,2013-07-07 21:05:00,
2013-07-07 14:11:00,85.6,42.5,29.74,WSW,245,7.2,7.2,22,0.00,,CLR,0.00,VWS V14.01,2013-07-07 21:11:00,
2013-07-07 14:17:00,85.1,40.8,29.74,West,261,6.3,6.3,21,0.00,,CLR,0.00,VWS V14.01,2013-07-07 21:17:00,
2013-07-07 14:22:00,85.6,42.5,29.74,SW,229,5.8,6.7,22,0.00,,CLR,0.00,VWS V14.01,2013-07-07 21:22:00,
2013-07-07 14:28:00,85.4,41.1,29.74,WSW,250,3.6,5.8,21,0.00,,CLR,0.00,VWS V14.01,2013-07-07 21:28:00,
2013-07-07 14:33:00,84.4,40.2,29.74,WSW,244,8.1,8.1,21,0.00,,CLR,0.00,VWS V14.01,2013-07-07 21:33:00,
2013-07-07 14:39:00,84.9,41.9,29.74,WSW,250,8.3,8.3,22,0.00,,CLR,0.00,VWS V14.01,2013-07-07 21:39:00,
2013-07-07 14:45:00,84.9,41.9,29.74,SW,215,4.0,5.8,22,0.00,,CLR,0.00,VWS V14.01,2013-07-07 21:45:00,
2013-07-07 14:50:00,84.2,40.1,29.74,West,271,8.7,8.7,21,0.00,,CLR,0.00,VWS V14.01,2013-07-07 21:50:00,
2013-07-07 14:56:00,83.5,42.9,29.74,SW,230,4.9,6.3,24,0.00,,CLR,0.00,VWS V14.01,2013-07-07 21:56:00,
2013-07-07 15:01:00,85.3,42.2,29.74,NW,304,5.8,6.3,22,0.00,,CLR,0.00,VWS V14.01,2013-07-07 22:01:00,
2013-07-07 15:07:00,86.2,40.4,29.74,West,266,5.4,6.3,20,0.00,,CLR,0.00,VWS V14.01,2013-07-07 22:07:00,
2013-07-07 15:12:00,85.1,39.5,29.74,WNW,300,7.6,7.6,20,0.00,,CLR,0.00,VWS V14.01,2013-07-07 22:12:00,
2013-07-07 15:18:00,83.5,40.7,29.74,SW,231,4.5,6.3,22,0.00,,CLR,0.00,VWS V14.01,2013-07-07 22:18:00,
2013-07-07 15:24:00,82.2,40.8,29.74,West,275,6.3,6.3,23,0.00,,CLR,0.00,VWS V14.01,2013-07-07 22:24:00,
2013-07-07 15:29:00,83.8,41.0,29.74,WSW,255,3.6,8.1,22,0.00,,CLR,0.00,VWS V14.01,2013-07-07 22:29:00,
2013-07-07 15:35:00,84.0,39.9,29.74,WNW,284,4.9,8.1,21,0.00,,CLR,0.00,VWS V14.01,2013-07-07 22:35:00,
2013-07-07 15:40:00,82.6,41.0,29.74,West,272,8.3,8.3,23,0.00,,CLR,0.00,VWS V14.01,2013-07-07 22:40:00,
2013-07-07 15:46:00,83.1,41.5,29.74,WNW,289,4.0,8.7,23,0.00,,CLR,0.00,VWS V14.01,2013-07-07 22:46:00,
2013-07-07 15:52:00,83.6,39.6,29.74,West,264,7.6,10.1,21,0.00,,CLR,0.00,VWS V14.01,2013-07-07 22:52:00,
2013-07-07 15:57:00,82.4,39.8,29.74,WSW,246,4.0,5.4,22,0.00,,CLR,0.00,VWS V14.01,2013-07-07 22:57:00,
2013-07-07 16:03:00,83.1,40.4,29.74,NNW,341,5.4,7.6,22,0.00,,CLR,0.00,VWS V14.01,2013-07-07 23:03:00,
2013-07-07 16:08:00,81.5,39.0,29.74,SW,236,6.3,8.1,22,0.00,,CLR,0.00,VWS V14.01,2013-07-07 23:08:00,
2013-07-07 16:13:00,82.2,40.8,29.74,WSW,249,8.1,8.1,23,0.00,,CLR,0.00,VWS V14.01,2013-07-07 23:13:00,
2013-07-07 16:19:00,83.6,40.8,29.74,WNW,302,5.4,7.6,22,0.00,,CLR,0.00,VWS V14.01,2013-07-07 23:19:00,
2013-07-07 16:24:00,81.8,40.5,29.74,WNW,298,8.7,8.7,23,0.00,,CLR,0.00,VWS V14.01,2013-07-07 23:24:00,
2013-07-07 16:30:00,81.5,41.2,29.74,WSW,245,7.6,7.6,24,0.00,,CLR,0.00,VWS V14.01,2013-07-07 23:30:00,
2013-07-07 16:35:00,80.8,42.7,29.71,West,278,5.8,8.1,26,0.00,,CLR,0.00,VWS V14.01,2013-07-07 23:35:00,
2013-07-07 16:40:00,80.8,41.7,29.71,SW,225,6.3,6.3,25,0.00,,CLR,0.00,VWS V14.01,2013-07-07 23:40:00,
2013-07-07 16:45:00,81.7,42.5,29.71,NNW,343,4.9,7.6,25,0.00,,CLR,0.00,VWS V14.01,2013-07-07 23:45:00,
2013-07-07 16:51:00,80.9,39.7,29.71,SSW,199,6.3,8.3,23,0.00,,CLR,0.00,VWS V14.01,2013-07-07 23:51:00,
2013-07-07 16:57:00,80.6,42.6,29.71,West,259,6.3,8.3,26,0.00,,CLR,0.00,VWS V14.01,2013-07-07 23:57:00,
2013-07-07 17:02:00,79.1,41.3,29.71,NNW,328,8.3,8.3,26,0.00,,CLR,0.00,VWS V14.01,2013-07-08 00:02:00,
2013-07-07 17:07:00,80.4,42.4,29.71,NW,320,7.6,7.6,26,0.00,,CLR,0.00,VWS V14.01,2013-07-08 00:07:00,
2013-07-07 17:13:00,80.2,41.2,29.71,NW,306,8.3,8.3,25,0.00,,CLR,0.00,VWS V14.01,2013-07-08 00:13:00,
2013-07-07 17:18:00,79.9,40.9,29.71,West,265,6.3,8.7,25,0.00,,CLR,0.00,VWS V14.01,2013-07-08 00:18:00,
2013-07-07 17:24:00,78.8,42.0,29.71,WNW,299,8.1,8.1,27,0.00,,FEW010,0.00,VWS V14.01,2013-07-08 00:24:00,
2013-07-07 17:29:00,78.6,43.7,29.71,WNW,299,3.6,6.3,29,0.00,,FEW010,0.00,VWS V14.01,2013-07-08 00:29:00,
2013-07-07 17:35:00,79.0,43.1,29.71,WNW,285,5.4,8.7,28,0.00,,FEW010,0.00,VWS V14.01,2013-07-08 00:35:00,
2013-07-07 17:40:00,77.5,43.7,29.71,West,259,6.3,8.7,30,0.00,,FEW010,0.00,VWS V14.01,2013-07-08 00:40:00,
2013-07-07 17:45:00,78.2,44.3,29.71,North,357,6.3,8.1,30,0.00,,FEW010,0.00,VWS V14.01,2013-07-08 00:45:00,
2013-07-07 17:50:00,79.0,44.0,29.71,NW,305,7.6,8.3,29,0.00,,FEW010,0.00,VWS V14.01,2013-07-08 00:50:00,
2013-07-07 17:55:00,79.0,44.0,29.71,NNW,335,6.3,8.1,29,0.00,,FEW010,0.00,VWS V14.01,2013-07-08 00:55:00,
2013-07-07 18:01:00,77.9,44.0,29.71,WSW,257,5.8,8.1,30,0.00,,FEW010,0.00,VWS V14.01,2013-07-08 01:01:00,
2013-07-07 18:06:00,77.2,44.2,29.71,WNW,299,4.0,6.3,31,0.00,,FEW010,0.00,VWS V14.01,2013-07-08 01:06:00,
2013-07-07 18:12:00,76.6,43.8,29.71,West,261,6.3,8.3,31,0.00,,FEW010,0.00,VWS V14.01,2013-07-08 01:12:00,
2013-07-07 18:18:00,75.5,42.8,29.71,NW,309,7.6,7.6,31,0.00,,FEW010,0.00,VWS V14.01,2013-07-08 01:18:00,
2013-07-07 18:23:00,75.7,43.8,29.71,West,265,5.4,8.3,32,0.00,,FEW010,0.00,VWS V14.01,2013-07-08 01:23:00,
2013-07-07 18:29:00,75.4,44.3,29.71,NW,307,8.1,8.7,33,0.00,,FEW010,0.00,VWS V14.01,2013-07-08 01:29:00,
2013-07-07 18:34:00,75.4,44.3,29.71,WNW,295,5.4,6.3,33,0.00,,FEW010,0.00,VWS V14.01,2013-07-08 01:34:00,
2013-07-07 18:40:00,75.4,44.3,29.71,West,268,3.6,7.6,33,0.00,,FEW010,0.00,VWS V14.01,2013-07-08 01:40:00,
2013-07-07 18:45:00,75.0,44.0,29.71,NNW,334,4.5,8.1,33,0.00,,FEW010,0.00,VWS V14.01,2013-07-08 01:45:00,
2013-07-07 18:51:00,74.3,44.1,29.74,NNW,327,7.6,8.7,34,0.00,,FEW010,0.00,VWS V14.01,2013-07-08 01:51:00,
2013-07-07 18:57:00,73.6,43.5,29.74,West,280,7.6,7.6,34,0.00,,FEW010,0.00,VWS V14.01,2013-07-08 01:57:00,
2013-07-07 19:02:00,73.4,44.8,29.74,NW,306,7.6,7.6,36,0.00,,FEW010,0.00,VWS V14.01,2013-07-08 02:02:00,
2013-07-07 19:07:00,73.2,45.4,29.74,WNW,296,6.3,8.7,37,0.00,,FEW010,0.00,VWS V14.01,2013-07-08 02:07:00,
2013-07-07 19:12:00,73.0,45.2,29.74,West,275,6.3,8.1,37,0.00,,FEW010,0.00,VWS V14.01,2013-07-08 02:12:00,
2013-07-07 19:18:00,72.5,45.5,29.74,West,273,4.0,6.3,38,0.00,,FEW010,0.00,VWS V14.01,2013-07-08 02:18:00,
2013-07-07 19:23:00,71.8,45.5,29.74,WNW,289,7.2,8.3,39,0.00,,FEW010,0.00,VWS V14.01,2013-07-08 02:23:00,
2013-07-07 19:29:00,70.9,46.7,29.74,NW,310,4.0,7.6,42,0.00,,FEW010,0.00,VWS V14.01,2013-07-08 02:29:00,
2013-07-07 19:34:00,70.5,47.0,29.74,West,270,5.8,6.3,43,0.00,,FEW010,0.00,VWS V14.01,2013-07-08 02:34:00,
2013-07-07 19:40:00,70.1,47.2,29.74,West,275,3.6,5.8,44,0.00,,CLR,0.00,VWS V14.01,2013-07-08 02:40:00,
2013-07-07 19:45:00,70.1,47.2,29.74,WNW,290,4.0,4.9,44,0.00,,CLR,0.00,VWS V14.01,2013-07-08 02:45:00,
2013-07-07 19:50:00,69.8,47.5,29.74,West,279,3.1,6.3,45,0.00,,CLR,0.00,VWS V14.01,2013-07-08 02:50:00,
2013-07-07 19:56:00,69.2,47.6,29.74,West,266,6.3,8.7,46,0.00,,CLR,0.00,VWS V14.01,2013-07-08 02:56:00,
2013-07-07 20:01:00,69.1,48.0,29.74,West,271,5.8,5.8,47,0.00,,CLR,0.00,VWS V14.01,2013-07-08 03:01:00,
2013-07-07 20:06:00,69.2,48.7,29.74,WNW,301,4.0,5.8,48,0.00,,CLR,0.00,VWS V14.01,2013-07-08 03:06:00,
2013-07-07 20:11:00,69.1,48.6,29.74,WNW,302,4.0,6.3,48,0.00,,CLR,0.00,VWS V14.01,2013-07-08 03:11:00,
2013-07-07 20:16:00,68.9,48.4,29.74,West,274,6.3,6.3,48,0.00,,CLR,0.00,VWS V14.01,2013-07-08 03:16:00,
2013-07-07 20:22:00,68.5,48.6,29.74,West,278,4.0,5.8,49,0.00,,CLR,0.00,VWS V14.01,2013-07-08 03:22:00,
2013-07-07 20:28:00,68.3,49.0,29.74,NW,305,8.1,8.1,50,0.00,,CLR,0.00,VWS V14.01,2013-07-08 03:28:00,
2013-07-07 20:33:00,68.3,49.5,29.77,NW,315,2.7,6.3,51,0.00,,CLR,0.00,VWS V14.01,2013-07-08 03:33:00,
2013-07-07 20:39:00,68.2,49.4,29.77,WNW,294,4.9,6.3,51,0.00,,CLR,0.00,VWS V14.01,2013-07-08 03:39:00,
2013-07-07 20:44:00,68.2,49.9,29.77,NW,322,5.4,5.8,52,0.00,,CLR,0.00,VWS V14.01,2013-07-08 03:44:00,
2013-07-07 20:50:00,67.8,50.6,29.77,NNW,342,2.7,5.4,54,0.00,,CLR,0.00,VWS V14.01,2013-07-08 03:50:00,
2013-07-07 20:55:00,67.8,51.1,29.77,NNW,331,5.4,6.3,55,0.00,,CLR,0.00,VWS V14.01,2013-07-08 03:55:00,
2013-07-07 21:00:00,67.6,50.9,29.77,NW,306,4.9,6.3,55,0.00,,CLR,0.00,VWS V14.01,2013-07-08 04:00:00,
2013-07-07 21:01:00,67.6,51.4,29.77,NW,307,3.6,5.4,56,0.00,,CLR,0.00,VWS V14.01,2013-07-08 04:01:00,
2013-07-07 21:04:00,67.6,51.4,29.77,NW,305,0.0,3.1,56,0.00,,CLR,0.00,VWS V14.01,2013-07-08 04:04:00,
2013-07-07 21:06:00,67.6,51.4,29.77,WNW,288,3.1,4.0,56,0.00,,CLR,0.00,VWS V14.01,2013-07-08 04:06:00,
2013-07-07 21:09:00,67.4,51.2,29.77,WNW,302,4.0,4.0,56,0.00,,CLR,0.00,VWS V14.01,2013-07-08 04:09:00,
2013-07-07 21:14:00,67.4,51.7,29.77,WNW,286,2.7,4.0,57,0.00,,CLR,0.00,VWS V14.01,2013-07-08 04:14:00,
2013-07-07 21:20:00,67.3,51.5,29.77,NW,307,3.6,5.4,57,0.00,,CLR,0.00,VWS V14.01,2013-07-08 04:20:00,
2013-07-07 21:21:00,67.3,51.5,29.77,WNW,288,2.7,3.6,57,0.00,,CLR,0.00,VWS V14.01,2013-07-08 04:21:00,
2013-07-07 21:27:00,67.1,51.8,29.77,WNW,293,3.1,4.0,58,0.00,,CLR,0.00,VWS V14.01,2013-07-08 04:27:00,
2013-07-07 21:32:00,67.1,51.8,29.80,NNW,328,3.6,4.9,58,0.00,,CLR,0.00,VWS V14.01,2013-07-08 04:32:00,
2013-07-07 21:38:00,66.9,51.7,29.80,West,266,4.0,4.0,58,0.00,,CLR,0.00,VWS V14.01,2013-07-08 04:38:00,
2013-07-07 21:43:00,66.9,51.7,29.80,NNW,329,5.4,5.4,58,0.00,,CLR,0.00,VWS V14.01,2013-07-08 04:43:00,
2013-07-07 21:49:00,66.9,51.7,29.80,NW,321,3.1,3.6,58,0.00,,CLR,0.00,VWS V14.01,2013-07-08 04:49:00,
2013-07-07 21:55:00,66.7,51.5,29.80,NW,324,3.1,4.9,58,0.00,,CLR,0.00,VWS V14.01,2013-07-08 04:55:00,
2013-07-07 22:01:00,66.7,51.5,29.80,WNW,301,4.0,4.0,58,0.00,,CLR,0.00,VWS V14.01,2013-07-08 05:01:00,
2013-07-07 22:07:00,66.5,51.3,29.80,WNW,293,3.1,3.1,58,0.00,,CLR,0.00,VWS V14.01,2013-07-08 05:07:00,
2013-07-07 22:12:00,66.5,51.3,29.80,WNW,292,3.1,5.4,58,0.00,,CLR,0.00,VWS V14.01,2013-07-08 05:12:00,
2013-07-07 22:17:00,66.5,51.3,29.80,NW,319,0.0,0.0,58,0.00,,CLR,0.00,VWS V14.01,2013-07-08 05:17:00,
2013-07-07 22:22:00,66.4,51.2,29.80,NW,312,0.0,0.0,58,0.00,,CLR,0.00,VWS V14.01,2013-07-08 05:22:00,
2013-07-07 22:28:00,66.4,51.2,29.80,WNW,286,0.0,0.0,58,0.00,,CLR,0.00,VWS V14.01,2013-07-08 05:28:00,
2013-07-07 22:34:00,66.4,51.2,29.80,West,265,3.1,4.0,58,0.00,,CLR,0.00,VWS V14.01,2013-07-08 05:34:00,
2013-07-07 22:39:00,66.2,51.0,29.80,NW,305,0.0,0.0,58,0.00,,CLR,0.00,VWS V14.01,2013-07-08 05:39:00,
2013-07-07 22:45:00,66.2,51.0,29.80,NW,324,0.0,0.0,58,0.00,,CLR,0.00,VWS V14.01,2013-07-08 05:45:00,
2013-07-07 22:50:00,66.2,51.0,29.80,NW,325,2.2,2.7,58,0.00,,CLR,0.00,VWS V14.01,2013-07-08 05:50:00,
2013-07-07 22:55:00,66.0,50.8,29.80,NNW,340,2.7,4.0,58,0.00,,CLR,0.00,VWS V14.01,2013-07-08 05:55:00,
2013-07-07 23:00:00,66.0,51.3,29.80,NW,325,3.1,5.4,59,0.00,,CLR,0.00,VWS V14.01,2013-07-08 06:00:00,
2013-07-07 23:06:00,66.0,51.3,29.80,NNW,328,0.0,3.1,59,0.00,,CLR,0.00,VWS V14.01,2013-07-08 06:06:00,
2013-07-07 23:11:00,65.8,51.6,29.80,WNW,291,0.0,0.0,60,0.00,,CLR,0.00,VWS V14.01,2013-07-08 06:11:00,
2013-07-07 23:17:00,65.8,51.6,29.80,North,353,0.0,0.0,60,0.00,,CLR,0.00,VWS V14.01,2013-07-08 06:17:00,
2013-07-07 23:23:00,65.8,51.6,29.83,North,353,0.0,0.0,60,0.00,,CLR,0.00,VWS V14.01,2013-07-08 06:23:00,
2013-07-07 23:28:00,65.6,51.4,29.83,North,353,0.0,0.0,60,0.00,,CLR,0.00,VWS V14.01,2013-07-08 06:28:00,
2013-07-07 23:33:00,65.6,51.4,29.83,North,353,0.0,0.0,60,0.00,,CLR,0.00,VWS V14.01,2013-07-08 06:33:00,
2013-07-07 23:38:00,65.6,51.4,29.83,NNW,327,0.0,0.0,60,0.00,,CLR,0.00,VWS V14.01,2013-07-08 06:38:00,
2013-07-07 23:43:00,65.5,51.2,29.83,NNW,345,2.7,2.7,60,0.00,,CLR,0.00,VWS V14.01,2013-07-08 06:43:00,
2013-07-07 23:48:00,65.5,51.7,29.83,NNW,341,2.7,3.1,61,0.00,,CLR,0.00,VWS V14.01,2013-07-08 06:48:00,
2013-07-07 23:54:00,65.5,51.7,29.83,NNW,344,0.0,2.2,61,0.00,,CLR,0.00,VWS V14.01,2013-07-08 06:54:00,
2013-07-07 23:59:00,65.5,51.7,29.83,NNW,342,0.0,0.0,61,0.00,,CLR,0.00,VWS V14.01,2013-07-08 06:59:00,